createdAt,value
2023-10-15T07:55:36.584Z,7.60
2023-10-15T07:58:03.379Z,7.66
2023-10-15T08:00:35.204Z,7.72
2023-10-15T08:03:03.918Z,7.68
2023-10-15T08:05:35.983Z,7.63
2023-10-15T08:08:05.999Z,7.72
2023-10-15T08:10:35.089Z,7.55
2023-10-15T08:13:05.549Z,7.75
2023-10-15T08:15:35.049Z,7.75
2023-10-15T08:18:02.901Z,8.05
2023-10-15T08:20:29.825Z,8.05
2023-10-15T08:22:56.654Z,8.00
2023-10-15T08:25:23.668Z,8.00
2023-10-15T08:27:50.690Z,8.19
2023-10-15T08:30:18.969Z,8.11
2023-10-15T08:32:46.650Z,8.21
2023-10-15T08:35:17.389Z,8.22
2023-10-15T08:37:45.256Z,8.29
2023-10-15T08:40:18.956Z,8.27
2023-10-15T08:42:52.479Z,8.03
2023-10-15T08:45:23.230Z,8.05
2023-10-15T08:47:51.500Z,7.79
2023-10-15T08:50:21.546Z,8.00
2023-10-15T08:52:50.127Z,8.03
2023-10-15T08:55:17.898Z,8.07
2023-10-15T08:57:45.286Z,8.12
2023-10-15T09:00:31.478Z,8.16
2023-10-15T09:03:03.618Z,8.13
2023-10-15T09:05:35.339Z,8.38
2023-10-15T09:08:09.854Z,8.39
2023-10-15T09:10:41.752Z,8.46
2023-10-15T09:13:19.655Z,8.55
2023-10-15T09:15:51.539Z,8.45
2023-10-15T09:18:19.039Z,8.45
2023-10-15T09:20:53.041Z,8.53
2023-10-15T09:23:24.705Z,8.31
2023-10-15T09:25:57.049Z,8.62
2023-10-15T09:28:29.168Z,8.56
2023-10-15T09:31:06.788Z,8.53
2023-10-15T09:33:34.855Z,8.49
2023-10-15T09:36:04.327Z,8.52
2023-10-15T09:38:35.234Z,8.61
2023-10-15T09:41:03.203Z,8.71
2023-10-15T09:43:32.711Z,8.76
2023-10-15T09:46:00.052Z,8.85
2023-10-15T09:48:27.531Z,8.89
2023-10-15T09:50:58.337Z,8.93
2023-10-15T09:53:25.540Z,8.85
2023-10-15T09:55:53.683Z,9.04
2023-10-15T09:58:20.490Z,9.08
2023-10-15T10:00:54.659Z,9.25
2023-10-15T10:03:51.752Z,9.47
2023-10-15T10:06:38.325Z,9.50
2023-10-15T10:09:07.744Z,9.42
2023-10-15T10:11:35.586Z,9.38
2023-10-15T10:14:24.795Z,9.38
2023-10-15T10:16:54.078Z,8.93
2023-10-15T10:19:21.554Z,9.04
2023-10-15T10:21:48.929Z,9.11
2023-10-15T10:24:18.478Z,9.07
2023-10-15T10:26:55.020Z,9.10
2023-10-15T10:29:27.317Z,9.45
2023-10-15T10:32:00.209Z,9.60
2023-10-15T10:34:30.911Z,9.40
2023-10-15T10:36:57.847Z,9.59
2023-10-15T10:39:27.232Z,9.85
2023-10-15T10:42:00.801Z,9.89
2023-10-15T10:44:28.347Z,9.85
2023-10-15T10:46:57.414Z,9.53
2023-10-15T10:49:35.575Z,9.76
2023-10-15T10:52:17.158Z,9.53
2023-10-15T10:54:47.316Z,9.40
2023-10-15T10:57:19.343Z,9.46
2023-10-15T10:59:46.231Z,9.05
2023-10-15T11:02:14.638Z,9.34
2023-10-15T11:04:42.149Z,9.25
2023-10-15T11:07:10.715Z,9.10
2023-10-15T11:09:38.671Z,9.40
2023-10-15T11:12:10.549Z,9.13
2023-10-15T11:14:38.141Z,9.29
2023-10-15T11:17:06.949Z,9.32
2023-10-15T11:19:33.920Z,10.66
2023-10-15T11:22:00.750Z,10.92
2023-10-15T11:24:30.902Z,10.77
2023-10-15T11:26:57.832Z,10.69
2023-10-15T11:29:25.725Z,10.38
2023-10-15T11:31:58.186Z,10.00
2023-10-15T11:34:27.019Z,10.92
2023-10-15T11:36:57.568Z,10.64
2023-10-15T11:39:39.331Z,10.81
2023-10-15T11:42:08.776Z,10.74
2023-10-15T11:44:38.586Z,10.71
2023-10-15T11:47:18.693Z,10.43
2023-10-15T11:49:46.258Z,10.19
2023-10-15T11:52:16.143Z,10.06
2023-10-15T11:54:55.475Z,9.95
2023-10-15T11:57:26.803Z,9.46
2023-10-15T11:59:57.510Z,9.11
2023-10-15T12:02:27.705Z,8.75
2023-10-15T12:04:58.364Z,8.03
2023-10-15T12:07:25.797Z,7.54
2023-10-15T12:09:53.169Z,6.79
2023-10-15T12:12:20.046Z,6.69
2023-10-15T12:14:47.180Z,6.56
2023-10-15T12:17:17.493Z,6.52
2023-10-15T12:19:45.879Z,6.77
2023-10-15T12:22:16.176Z,7.63
2023-10-15T12:24:43.441Z,8.80
2023-10-15T12:27:10.257Z,9.56
2023-10-15T12:29:39.879Z,10.42
2023-10-15T12:32:10.061Z,10.44
2023-10-15T12:34:43.016Z,10.73
2023-10-15T12:37:13.991Z,11.78
2023-10-15T12:39:45.718Z,12.27
2023-10-15T12:42:12.765Z,12.79
2023-10-15T12:44:42.548Z,12.57
2023-10-15T12:47:09.706Z,12.85
2023-10-15T12:49:38.073Z,12.79
2023-10-15T12:52:05.931Z,13.03
2023-10-15T12:54:36.704Z,13.57
2023-10-15T12:57:05.639Z,13.24
2023-10-15T12:59:34.875Z,12.96
2023-10-15T13:02:04.091Z,12.72
2023-10-15T13:04:30.848Z,12.75
2023-10-15T13:06:57.584Z,13.57
2023-10-15T13:09:27.302Z,12.64
2023-10-15T13:11:54.834Z,11.55
2023-10-15T13:14:21.731Z,11.13
2023-10-15T13:16:51.642Z,10.15
2023-10-15T13:19:19.921Z,9.31
2023-10-15T13:21:48.120Z,8.97
2023-10-15T13:24:15.817Z,8.69
2023-10-15T13:26:43.448Z,8.57
2023-10-15T13:29:10.178Z,8.30
2023-10-15T13:31:37.103Z,8.16
2023-10-15T13:34:06.758Z,8.11
2023-10-15T13:36:34.979Z,8.47
2023-10-15T13:39:02.485Z,8.42
2023-10-15T13:41:30.554Z,8.51
2023-10-15T13:43:58.159Z,8.62
2023-10-15T13:46:24.975Z,9.18
2023-10-15T13:48:51.698Z,9.59
2023-10-15T13:51:19.246Z,9.96
2023-10-15T13:53:46.349Z,9.84
2023-10-15T13:56:14.181Z,9.51
2023-10-15T13:58:43.039Z,9.53
2023-10-15T14:01:11.499Z,9.01
2023-10-15T14:03:39.577Z,9.06
2023-10-15T14:06:06.844Z,8.92
2023-10-15T14:08:33.623Z,8.83
2023-10-15T14:11:02.645Z,8.87
2023-10-15T14:13:30.844Z,8.92
2023-10-15T14:16:02.584Z,8.86
2023-10-15T14:18:29.883Z,8.89
2023-10-15T14:20:57.377Z,8.66
2023-10-15T14:23:24.490Z,8.29
2023-10-15T14:25:51.393Z,8.45
2023-10-15T14:28:20.020Z,8.13
2023-10-15T14:30:47.216Z,8.11
2023-10-15T14:33:13.997Z,8.04
2023-10-15T14:35:41.548Z,8.43
2023-10-15T14:38:09.808Z,8.53
2023-10-15T14:40:39.483Z,9.06
2023-10-15T14:43:06.938Z,9.18
2023-10-15T14:45:35.057Z,9.62
2023-10-15T14:48:01.774Z,9.58
2023-10-15T14:50:28.573Z,9.86
2023-10-15T14:52:55.379Z,9.69
2023-10-15T14:55:22.029Z,9.36
2023-10-15T14:57:49.548Z,9.02
2023-10-15T15:00:16.516Z,8.86
2023-10-15T15:02:44.948Z,8.67
2023-10-15T15:05:11.963Z,8.45
2023-10-15T15:07:39.622Z,8.31
2023-10-15T15:10:08.091Z,8.48
2023-10-15T15:12:34.760Z,8.48
2023-10-15T15:15:02.754Z,8.42
2023-10-15T15:17:29.484Z,8.32
2023-10-15T15:19:56.383Z,8.38
2023-10-15T15:22:23.546Z,8.36
2023-10-15T15:24:50.245Z,8.61
2023-10-15T15:27:17.220Z,8.79
2023-10-15T15:29:46.471Z,8.51
2023-10-15T15:32:13.089Z,8.55
2023-10-15T15:34:39.913Z,8.58
2023-10-15T15:37:07.462Z,8.53
2023-10-15T15:39:34.133Z,8.63
2023-10-15T15:42:00.840Z,8.39
2023-10-15T15:44:27.690Z,8.39
2023-10-15T15:46:55.099Z,8.14
2023-10-15T15:49:22.334Z,8.13
2023-10-15T15:51:51.595Z,7.90
2023-10-15T15:54:22.547Z,7.89
2023-10-15T15:56:49.163Z,7.91
2023-10-15T15:59:15.920Z,7.75
2023-10-15T16:01:45.693Z,7.61
2023-10-15T16:04:13.236Z,7.50
2023-10-15T16:06:40.388Z,7.39
2023-10-15T16:09:11.452Z,7.46
2023-10-15T16:11:38.817Z,7.22
2023-10-15T16:14:05.804Z,7.38
2023-10-15T16:16:32.508Z,7.22
2023-10-15T16:18:59.188Z,7.20
2023-10-15T16:21:25.860Z,7.36
2023-10-15T16:23:52.471Z,7.13
2023-10-15T16:26:19.801Z,7.13
2023-10-15T16:28:46.580Z,6.91
2023-10-15T16:31:13.321Z,7.17
2023-10-15T16:33:41.039Z,6.95
2023-10-15T16:36:08.616Z,7.00
2023-10-15T16:38:35.488Z,6.72
2023-10-15T16:41:02.260Z,6.91
2023-10-15T16:43:30.587Z,6.92
2023-10-15T16:45:59.044Z,6.90
2023-10-15T16:48:26.346Z,6.88
2023-10-15T16:50:53.236Z,6.82
2023-10-15T16:53:19.993Z,6.69
2023-10-15T16:55:46.939Z,6.91
2023-10-15T16:58:13.683Z,6.89
2023-10-15T17:00:41.025Z,6.87
2023-10-15T17:03:08.683Z,6.75
2023-10-15T17:05:36.270Z,6.74
2023-10-15T17:08:03.971Z,6.71
2023-10-15T17:10:30.856Z,6.77
2023-10-15T17:12:57.721Z,6.63
2023-10-15T17:15:24.579Z,6.73
2023-10-15T17:17:51.351Z,6.67
2023-10-15T17:20:23.334Z,6.62
2023-10-15T17:22:50.818Z,6.57
2023-10-15T17:25:17.588Z,6.56
2023-10-15T17:27:44.709Z,6.67
2023-10-15T17:32:41.776Z,6.57
2023-10-15T17:35:09.064Z,6.36
2023-10-15T17:37:35.879Z,6.31
2023-10-15T17:40:02.621Z,6.36
2023-10-15T17:42:29.361Z,6.29
2023-10-15T17:44:56.813Z,6.21
2023-10-15T17:47:23.708Z,6.14
2023-10-15T17:49:50.492Z,5.90
2023-10-15T17:52:17.451Z,6.13
2023-10-15T17:54:44.907Z,6.04
2023-10-15T17:57:13.114Z,5.96
2023-10-15T17:59:39.954Z,6.01
2023-10-15T18:04:35.174Z,5.94
2023-10-15T18:07:01.893Z,5.92
2023-10-15T18:09:28.677Z,5.96
2023-10-15T18:11:55.350Z,5.84
2023-10-15T18:14:22.092Z,5.88
2023-10-15T18:16:48.742Z,5.96
2023-10-15T18:19:15.505Z,5.88
2023-10-15T18:21:42.252Z,5.84
2023-10-15T18:24:09.330Z,6.00
2023-10-15T18:26:36.005Z,5.91
2023-10-15T18:29:02.688Z,5.88
2023-10-15T18:31:29.441Z,5.78
2023-10-15T18:33:56.176Z,5.67
2023-10-15T18:36:25.136Z,5.67
2023-10-15T18:38:51.909Z,5.53
2023-10-15T18:41:18.710Z,5.54
2023-10-15T18:43:45.687Z,5.50
2023-10-15T18:46:12.465Z,5.56
2023-10-15T18:48:39.221Z,5.50
2023-10-15T18:51:27.572Z,5.27
2023-10-15T18:53:52.534Z,5.20
2023-10-15T18:56:19.188Z,5.30
2023-10-15T18:58:52.858Z,5.32
2023-10-15T19:01:23.073Z,5.41
2023-10-15T19:03:49.845Z,5.33
2023-10-15T19:06:16.748Z,5.32
2023-10-15T19:08:43.456Z,5.35
2023-10-15T19:11:16.050Z,5.14
2023-10-15T19:13:43.686Z,5.26
2023-10-15T19:16:10.984Z,5.17
2023-10-15T19:18:38.738Z,5.11
2023-10-15T19:21:05.640Z,5.15
2023-10-15T19:23:32.370Z,5.29
2023-10-15T19:26:09.628Z,5.23
2023-10-15T19:28:37.488Z,5.20
2023-10-15T19:31:05.368Z,5.09
2023-10-15T19:33:32.831Z,5.16
2023-10-15T19:36:01.047Z,5.02
2023-10-15T19:38:28.621Z,4.94
2023-10-15T19:40:55.572Z,5.11
2023-10-15T19:43:22.752Z,5.10
2023-10-15T19:45:50.301Z,5.02
2023-10-15T19:48:18.086Z,5.03
2023-10-15T19:50:44.875Z,4.95
2023-10-15T19:53:12.293Z,4.91
2023-10-15T19:55:39.422Z,4.79
2023-10-15T19:58:06.802Z,4.85
2023-10-15T20:00:35.812Z,4.85
2023-10-15T20:03:03.007Z,4.70
2023-10-15T20:05:30.575Z,4.63
2023-10-15T20:07:57.304Z,4.75
2023-10-15T20:10:23.972Z,4.55
2023-10-15T20:12:50.891Z,4.58
2023-10-15T20:15:20.482Z,4.54
2023-10-15T20:17:48.143Z,4.53
2023-10-15T20:20:16.571Z,4.58
2023-10-15T20:22:44.686Z,4.53
2023-10-15T20:25:12.988Z,4.53
2023-10-15T20:27:41.608Z,4.55
2023-10-15T20:30:11.965Z,4.71
2023-10-15T20:32:53.936Z,4.51
2023-10-15T20:35:21.935Z,4.52
2023-10-15T20:37:49.698Z,4.52
2023-10-15T20:40:16.595Z,4.36
2023-10-15T20:42:50.171Z,4.43
2023-10-15T20:45:19.610Z,4.37
2023-10-15T20:47:48.548Z,4.35
2023-10-15T20:50:16.833Z,4.31
2023-10-15T20:52:45.239Z,4.12
2023-10-15T20:55:13.094Z,4.14
2023-10-15T20:57:41.058Z,4.17
2023-10-15T21:00:13.306Z,4.00
2023-10-15T21:02:47.407Z,4.10
2023-10-15T21:05:15.712Z,4.00
2023-10-15T21:07:44.237Z,4.17
2023-10-15T21:10:13.080Z,4.13
2023-10-15T21:12:44.665Z,3.94
2023-10-15T21:15:13.240Z,4.02
2023-10-15T21:17:41.633Z,4.01
2023-10-15T21:20:12.432Z,3.94
2023-10-15T21:22:40.759Z,3.92
2023-10-15T21:25:11.443Z,4.04
2023-10-15T21:27:39.085Z,3.82
2023-10-15T21:30:10.807Z,3.80
2023-10-15T21:32:38.064Z,3.69
